createdAt,value
2023-09-11T00:00:13.170Z,26.99
2023-09-11T00:02:39.621Z,26.97
2023-09-11T00:05:06.445Z,26.95
2023-09-11T00:07:32.897Z,26.92
2023-09-11T00:09:59.475Z,26.88
2023-09-11T00:12:26.049Z,26.82
2023-09-11T00:14:52.529Z,26.79
2023-09-11T00:17:19.073Z,26.73
2023-09-11T00:19:45.468Z,26.69
2023-09-11T00:22:11.905Z,26.61
2023-09-11T00:24:39.229Z,26.56
2023-09-11T00:27:05.753Z,26.51
2023-09-11T00:29:32.243Z,26.47
2023-09-11T00:31:58.963Z,26.42
2023-09-11T00:34:25.477Z,26.38
2023-09-11T00:36:52.016Z,26.36
2023-09-11T00:39:18.468Z,26.38
2023-09-11T00:41:45.034Z,26.36
2023-09-11T00:44:11.667Z,26.29
2023-09-11T00:46:38.249Z,26.23
2023-09-11T00:49:05.473Z,26.19
2023-09-11T00:51:33.586Z,26.17
2023-09-11T00:54:00.215Z,26.16
2023-09-11T00:56:26.954Z,26.15
2023-09-11T00:58:53.690Z,26.16
2023-09-11T01:01:21.938Z,26.16
2023-09-11T01:03:48.822Z,26.14
2023-09-11T01:06:15.331Z,26.12
2023-09-11T01:08:42.176Z,26.09
2023-09-11T01:11:09.121Z,26.07
2023-09-11T01:13:35.974Z,26.07
2023-09-11T01:16:11.944Z,26.05
2023-09-11T01:19:03.435Z,26.01
2023-09-11T01:21:52.476Z,25.96
2023-09-11T01:24:40.014Z,25.87
2023-09-11T01:27:44.421Z,25.84
2023-09-11T01:30:13.475Z,25.80
2023-09-11T01:32:41.306Z,25.79
2023-09-11T01:35:08.273Z,25.75
2023-09-11T01:37:34.780Z,25.70
2023-09-11T01:40:01.382Z,25.67
2023-09-11T01:42:33.452Z,25.63
2023-09-11T01:45:01.821Z,25.59
2023-09-11T01:47:29.712Z,25.54
2023-09-11T01:49:57.675Z,25.53
2023-09-11T01:52:25.998Z,25.50
2023-09-11T01:54:53.452Z,25.47
2023-09-11T01:57:20.143Z,25.43
2023-09-11T01:59:46.584Z,25.39
2023-09-11T02:02:13.238Z,25.37
2023-09-11T02:04:40.113Z,25.35
2023-09-11T02:07:06.595Z,25.34
2023-09-11T02:09:33.186Z,25.30
2023-09-11T02:11:59.685Z,25.29
2023-09-11T02:14:26.434Z,25.28
2023-09-11T02:16:52.905Z,25.21
2023-09-11T02:19:19.318Z,25.18
2023-09-11T02:21:45.844Z,25.20
2023-09-11T02:24:15.046Z,25.22
2023-09-11T02:26:41.566Z,25.23
2023-09-11T02:29:08.039Z,25.24
2023-09-11T02:31:34.583Z,25.25
2023-09-11T02:34:01.105Z,25.21
2023-09-11T02:36:27.532Z,25.18
2023-09-11T02:38:54.032Z,25.17
2023-09-11T02:41:20.787Z,25.18
2023-09-11T02:43:47.388Z,25.17
2023-09-11T02:46:14.039Z,25.16
2023-09-11T02:48:48.131Z,25.17
2023-09-11T02:51:15.485Z,25.16
2023-09-11T02:53:42.274Z,25.13
2023-09-11T02:56:08.808Z,25.12
2023-09-11T02:58:35.351Z,25.14
2023-09-11T03:01:04.274Z,25.12
2023-09-11T03:03:33.785Z,25.04
2023-09-11T03:06:01.769Z,24.96
2023-09-11T03:08:29.526Z,25.06
2023-09-11T03:11:04.965Z,25.07
2023-09-11T03:13:31.466Z,25.06
2023-09-11T03:16:10.693Z,25.01
2023-09-11T03:18:38.619Z,24.97
2023-09-11T03:21:07.088Z,24.95
2023-09-11T03:23:33.734Z,24.94
2023-09-11T03:26:00.652Z,24.90
2023-09-11T03:28:33.670Z,24.88
2023-09-11T03:31:04.065Z,24.84
2023-09-11T03:33:31.044Z,24.81
2023-09-11T03:36:01.746Z,24.81
2023-09-11T03:38:28.273Z,24.75
2023-09-11T03:40:54.895Z,24.72
2023-09-11T03:43:21.871Z,24.67
2023-09-11T03:45:50.060Z,24.64
2023-09-11T03:48:17.489Z,24.65
2023-09-11T03:50:44.049Z,24.65
2023-09-11T03:53:10.518Z,24.65
2023-09-11T03:55:37.593Z,24.63
2023-09-11T03:58:04.559Z,24.60
2023-09-11T04:00:31.011Z,24.62
2023-09-11T04:02:57.670Z,24.60
2023-09-11T04:05:24.192Z,24.56
2023-09-11T04:07:50.990Z,24.52
2023-09-11T04:10:17.834Z,24.52
2023-09-11T04:12:44.389Z,24.49
2023-09-11T04:15:10.993Z,24.48
2023-09-11T04:17:37.518Z,24.49
2023-09-11T04:20:04.579Z,24.50
2023-09-11T04:22:31.148Z,24.52
2023-09-11T04:24:57.796Z,24.52
2023-09-11T04:27:27.256Z,24.50
2023-09-11T04:29:53.798Z,24.47
2023-09-11T04:32:22.233Z,24.43
2023-09-11T04:34:49.161Z,24.36
2023-09-11T04:37:17.716Z,24.35
2023-09-11T04:39:44.365Z,24.34
2023-09-11T04:42:10.798Z,24.27
2023-09-11T04:44:37.532Z,24.25
2023-09-11T04:47:07.817Z,24.24
2023-09-11T04:49:34.496Z,24.25
2023-09-11T04:52:00.956Z,24.28
2023-09-11T04:54:27.372Z,24.25
2023-09-11T04:56:53.919Z,24.24
2023-09-11T04:59:20.456Z,24.20
2023-09-11T05:01:47.060Z,24.17
2023-09-11T05:04:13.693Z,24.17
2023-09-11T05:06:40.264Z,24.16
2023-09-11T05:09:12.653Z,24.14
2023-09-11T05:11:39.578Z,24.12
2023-09-11T05:14:06.210Z,24.10
2023-09-11T05:16:32.697Z,24.05
2023-09-11T05:18:59.178Z,24.04
2023-09-11T05:21:26.311Z,24.04
2023-09-11T05:23:52.802Z,24.05
2023-09-11T05:26:19.287Z,24.03
2023-09-11T05:28:45.767Z,23.87
2023-09-11T05:31:12.283Z,23.80
2023-09-11T05:33:38.772Z,23.80
2023-09-11T05:36:06.379Z,23.82
2023-09-11T05:38:33.021Z,23.88
2023-09-11T05:40:59.489Z,23.93
2023-09-11T05:43:29.037Z,23.95
2023-09-11T05:45:57.014Z,23.95
2023-09-11T05:48:25.050Z,23.94
2023-09-11T05:50:53.436Z,23.91
2023-09-11T05:53:19.955Z,23.94
2023-09-11T05:55:46.573Z,23.99
2023-09-11T05:58:13.119Z,24.02
2023-09-11T06:00:39.703Z,23.99
2023-09-11T06:03:06.330Z,24.01
2023-09-11T06:05:40.838Z,24.00
2023-09-11T06:08:07.912Z,23.95
2023-09-11T06:10:35.109Z,23.97
2023-09-11T06:13:02.895Z,23.99
2023-09-11T06:15:30.837Z,24.00
2023-09-11T06:17:57.639Z,24.04
2023-09-11T06:20:24.457Z,24.28
2023-09-11T06:22:52.004Z,24.57
2023-09-11T06:25:18.426Z,24.79
2023-09-11T06:27:44.913Z,25.04
2023-09-11T06:30:14.506Z,25.24
2023-09-11T06:32:41.102Z,25.43
2023-09-11T06:35:08.064Z,25.61
2023-09-11T06:37:34.684Z,25.70
2023-09-11T06:40:02.223Z,25.80
2023-09-11T06:42:28.804Z,25.92
2023-09-11T06:44:55.724Z,26.03
2023-09-11T06:47:22.554Z,26.08
2023-09-11T06:49:49.373Z,26.10
2023-09-11T06:52:17.521Z,26.19
2023-09-11T06:54:44.791Z,26.26
2023-09-11T06:57:11.576Z,26.28
2023-09-11T06:59:38.262Z,26.31
2023-09-11T07:02:05.177Z,26.32
2023-09-11T07:04:32.166Z,26.39
2023-09-11T07:06:58.800Z,26.38
2023-09-11T07:09:25.433Z,26.35
2023-09-11T07:11:52.435Z,26.37
2023-09-11T07:14:23.354Z,26.48
2023-09-11T07:16:50.609Z,26.58
2023-09-11T07:19:18.740Z,26.87
2023-09-11T07:21:45.634Z,27.43
2023-09-11T07:24:13.082Z,28.06
2023-09-11T07:26:40.254Z,28.68
2023-09-11T07:29:06.786Z,29.27
2023-09-11T07:31:33.843Z,29.85
2023-09-11T07:34:00.834Z,30.40
2023-09-11T07:36:28.645Z,30.95
2023-09-11T07:38:55.195Z,31.33
2023-09-11T07:41:22.615Z,31.81
2023-09-11T07:43:52.477Z,32.15
2023-09-11T07:46:23.890Z,32.61
2023-09-11T07:48:51.009Z,33.03
2023-09-11T07:51:17.946Z,33.35
2023-09-11T07:53:45.448Z,33.59
2023-09-11T07:56:13.211Z,33.78
2023-09-11T07:58:40.904Z,33.94
2023-09-11T08:01:07.827Z,34.01
2023-09-11T08:03:35.692Z,33.95
2023-09-11T08:06:05.356Z,34.10
2023-09-11T08:08:32.322Z,34.28
2023-09-11T08:11:00.198Z,34.33
2023-09-11T08:13:26.808Z,34.43
2023-09-11T08:15:53.633Z,34.37
2023-09-11T08:18:20.283Z,34.50
2023-09-11T08:20:47.828Z,34.69
2023-09-11T08:23:14.517Z,34.82
2023-09-11T08:25:41.012Z,34.98
2023-09-11T08:28:07.622Z,35.07
2023-09-11T08:30:34.634Z,35.15
2023-09-11T08:33:04.120Z,35.15
2023-09-11T08:35:31.408Z,35.37
2023-09-11T08:37:57.947Z,35.55
2023-09-11T08:40:30.985Z,35.69
2023-09-11T08:42:58.202Z,35.86
2023-09-11T08:45:26.882Z,35.87
2023-09-11T08:47:57.407Z,35.85
2023-09-11T08:50:28.997Z,35.88
2023-09-11T08:52:58.070Z,35.85
2023-09-11T08:55:26.085Z,35.98
2023-09-11T08:57:53.966Z,36.16
2023-09-11T09:00:21.123Z,36.22
2023-09-11T09:02:48.607Z,36.23
2023-09-11T09:05:16.390Z,36.34
2023-09-11T09:07:44.939Z,36.10
2023-09-11T09:10:12.665Z,36.03
2023-09-11T09:12:41.291Z,36.02
2023-09-11T09:15:08.635Z,35.94
2023-09-11T09:17:37.927Z,36.02
2023-09-11T09:20:05.471Z,36.19
2023-09-11T09:22:31.918Z,36.05
2023-09-11T09:24:58.410Z,35.88
2023-09-11T09:27:26.373Z,35.87
2023-09-11T09:29:52.943Z,35.95
2023-09-11T09:32:19.576Z,36.03
2023-09-11T09:34:54.907Z,36.21
2023-09-11T09:37:22.907Z,36.39
2023-09-11T09:39:50.086Z,36.48
2023-09-11T09:42:17.540Z,36.56
2023-09-11T09:44:54.636Z,36.61
2023-09-11T09:47:23.006Z,36.62
2023-09-11T09:49:51.046Z,36.63
2023-09-11T09:52:21.711Z,36.63
2023-09-11T09:54:50.220Z,36.45
2023-09-11T09:57:18.741Z,36.35
2023-09-11T09:59:51.310Z,36.44
2023-09-11T10:02:27.429Z,36.52
2023-09-11T10:05:00.430Z,36.46
2023-09-11T10:07:43.928Z,36.47
2023-09-11T10:10:21.502Z,36.27
2023-09-11T10:12:53.023Z,36.06
2023-09-11T10:15:21.602Z,35.89
2023-09-11T10:17:48.292Z,35.94
2023-09-11T10:20:14.907Z,36.05
2023-09-11T10:22:41.366Z,35.91
2023-09-11T10:25:07.882Z,35.68
2023-09-11T10:27:35.270Z,35.55
2023-09-11T10:30:05.526Z,35.45
2023-09-11T10:32:39.152Z,35.27
2023-09-11T10:35:06.653Z,35.23
2023-09-11T10:37:36.745Z,35.17
2023-09-11T10:40:04.961Z,35.12
2023-09-11T10:42:31.500Z,34.91
2023-09-11T10:44:57.995Z,35.05
2023-09-11T10:47:27.496Z,34.98
2023-09-11T10:49:57.938Z,35.03
2023-09-11T10:52:26.108Z,35.05
2023-09-11T10:54:52.729Z,35.12
2023-09-11T10:57:19.498Z,35.24
2023-09-11T10:59:46.211Z,35.17
2023-09-11T11:02:12.794Z,35.32
2023-09-11T11:04:42.616Z,35.41
2023-09-11T11:07:09.357Z,35.36
2023-09-11T11:09:38.138Z,35.36
2023-09-11T11:12:07.688Z,35.40
2023-09-11T11:14:35.140Z,35.55
2023-09-11T11:17:07.234Z,35.78
2023-09-11T11:19:36.351Z,35.84
2023-09-11T11:22:08.628Z,35.75
2023-09-11T11:24:51.772Z,35.73
2023-09-11T11:27:19.122Z,35.82
2023-09-11T11:29:45.669Z,35.96
2023-09-11T11:32:13.496Z,36.06
2023-09-11T11:34:42.496Z,36.14
2023-09-11T11:37:12.093Z,36.14
2023-09-11T11:39:38.878Z,35.94
2023-09-11T11:42:06.735Z,35.59
2023-09-11T11:44:34.718Z,35.34
2023-09-11T11:47:02.184Z,35.32
2023-09-11T11:49:29.353Z,35.16
2023-09-11T11:52:00.888Z,35.13
2023-09-11T11:54:28.665Z,35.25
2023-09-11T11:57:02.855Z,35.32
2023-09-11T11:59:31.958Z,35.43
2023-09-11T12:01:58.938Z,35.31
2023-09-11T12:04:45.255Z,35.02
2023-09-11T12:07:12.899Z,34.77
2023-09-11T12:09:40.625Z,34.76
2023-09-11T12:12:08.762Z,34.79
2023-09-11T12:14:37.301Z,34.94
2023-09-11T12:17:08.114Z,35.08
2023-09-11T12:19:34.487Z,35.05
2023-09-11T12:22:00.950Z,35.00
2023-09-11T12:24:27.653Z,35.06
2023-09-11T12:26:54.376Z,35.19
2023-09-11T12:29:21.197Z,35.21
2023-09-11T12:31:47.814Z,35.23
2023-09-11T12:34:14.296Z,35.07
2023-09-11T12:36:43.253Z,34.91
2023-09-11T12:39:10.003Z,34.81
2023-09-11T12:41:36.585Z,34.82
2023-09-11T12:44:04.040Z,34.84
2023-09-11T12:46:30.625Z,34.68
2023-09-11T12:48:57.264Z,34.55
2023-09-11T12:51:23.888Z,34.28
2023-09-11T12:53:50.675Z,34.26
2023-09-11T12:56:21.852Z,34.23
2023-09-11T12:58:49.033Z,34.09
2023-09-11T13:01:15.660Z,34.01
2023-09-11T13:03:47.466Z,33.92
2023-09-11T13:06:14.747Z,33.96
2023-09-11T13:08:41.926Z,33.86
2023-09-11T13:11:08.629Z,33.71
2023-09-11T13:13:35.956Z,33.48
2023-09-11T13:16:04.317Z,33.41
2023-09-11T13:18:31.393Z,33.46
2023-09-11T13:20:58.173Z,33.57
2023-09-11T13:23:26.728Z,33.67
2023-09-11T13:25:53.622Z,33.80
2023-09-11T13:28:20.153Z,33.91
2023-09-11T13:30:46.572Z,33.81
2023-09-11T13:33:13.280Z,33.90
2023-09-11T13:35:39.876Z,33.96
2023-09-11T13:38:06.398Z,33.98
2023-09-11T13:40:33.018Z,33.93
2023-09-11T13:42:59.518Z,33.83
2023-09-11T13:45:28.413Z,33.76
2023-09-11T13:47:55.215Z,33.84
2023-09-11T13:50:21.968Z,33.86
2023-09-11T13:52:50.142Z,33.81
2023-09-11T13:55:16.754Z,33.60
2023-09-11T13:57:43.224Z,33.41
2023-09-11T14:00:10.719Z,33.18
2023-09-11T14:02:37.398Z,32.69
2023-09-11T14:05:04.658Z,32.44
2023-09-11T14:07:31.173Z,32.29
2023-09-11T14:09:57.803Z,32.22
2023-09-11T14:12:24.425Z,32.10
2023-09-11T14:14:50.978Z,32.09
2023-09-11T14:17:17.472Z,32.06
2023-09-11T14:19:43.980Z,32.04
2023-09-11T14:22:10.480Z,32.05
2023-09-11T14:24:36.961Z,32.05
2023-09-11T14:27:04.125Z,31.96
2023-09-11T14:29:30.633Z,31.80
2023-09-11T14:31:57.626Z,31.63
2023-09-11T14:34:24.250Z,31.24
2023-09-11T14:36:55.141Z,31.06
2023-09-11T14:39:30.639Z,30.80
2023-09-11T14:41:57.119Z,30.64
2023-09-11T14:44:23.550Z,30.62
2023-09-11T14:46:50.103Z,30.71
2023-09-11T14:49:16.482Z,30.70
2023-09-11T14:51:42.928Z,30.57
2023-09-11T14:54:09.455Z,30.47
2023-09-11T14:56:35.977Z,30.30
2023-09-11T14:59:02.440Z,30.21
2023-09-11T15:01:29.130Z,30.13
2023-09-11T15:03:58.963Z,30.08
2023-09-11T15:06:28.043Z,30.12
2023-09-11T15:08:57.834Z,30.07
2023-09-11T15:11:25.473Z,30.14
2023-09-11T15:13:52.015Z,30.17
2023-09-11T15:16:18.543Z,30.05
2023-09-11T15:18:45.357Z,29.74
2023-09-11T15:21:15.381Z,29.78
2023-09-11T15:23:42.175Z,29.77
2023-09-11T15:26:08.654Z,29.70
2023-09-11T15:28:35.229Z,29.62
2023-09-11T15:31:01.696Z,29.68
2023-09-11T15:33:28.503Z,29.64
2023-09-11T15:36:02.277Z,29.46
2023-09-11T15:38:29.919Z,29.39
2023-09-11T15:41:03.924Z,29.34
2023-09-11T15:43:42.030Z,29.11
2023-09-11T15:46:12.142Z,28.79
2023-09-11T15:48:40.565Z,28.50
2023-09-11T15:51:08.774Z,28.19
2023-09-11T15:53:37.865Z,28.11
2023-09-11T15:56:04.688Z,28.21
2023-09-11T15:58:31.623Z,28.26
2023-09-11T16:01:01.253Z,28.30
2023-09-11T16:03:27.902Z,28.32
2023-09-11T16:05:54.995Z,28.43
2023-09-11T16:08:21.654Z,28.42
2023-09-11T16:10:48.141Z,28.27
2023-09-11T16:13:14.900Z,28.10
2023-09-11T16:15:41.610Z,28.13
2023-09-11T16:18:08.437Z,28.14
2023-09-11T16:20:37.061Z,28.10
2023-09-11T16:23:04.970Z,27.91
2023-09-11T16:25:32.816Z,27.83
2023-09-11T16:27:59.808Z,27.89
2023-09-11T16:30:26.706Z,27.98
2023-09-11T16:32:56.363Z,27.99
2023-09-11T16:35:23.968Z,28.05
2023-09-11T16:37:51.014Z,28.08
2023-09-11T16:40:17.763Z,28.12
2023-09-11T16:42:45.919Z,28.15
2023-09-11T16:45:13.405Z,28.12
2023-09-11T16:47:40.365Z,28.16
2023-09-11T16:50:10.105Z,28.18
2023-09-11T16:52:36.844Z,28.23
2023-09-11T16:55:05.086Z,28.23
2023-09-11T16:57:31.570Z,28.22
2023-09-11T17:00:01.603Z,28.20
2023-09-11T17:02:28.517Z,28.23
2023-09-11T17:04:57.861Z,28.19
2023-09-11T17:07:24.868Z,28.17
2023-09-11T17:09:51.361Z,28.16
2023-09-11T17:12:18.684Z,28.15
2023-09-11T17:14:45.236Z,28.12
2023-09-11T17:17:11.694Z,28.10
2023-09-11T17:19:38.094Z,28.08
2023-09-11T17:22:04.755Z,28.04
2023-09-11T17:24:31.328Z,27.99
2023-09-11T17:26:57.934Z,27.96
2023-09-11T17:29:28.507Z,27.96
2023-09-11T17:31:55.206Z,27.99
2023-09-11T17:34:23.496Z,27.98
2023-09-11T17:36:51.416Z,27.98
2023-09-11T17:39:18.694Z,27.94
2023-09-11T17:41:45.903Z,27.94
2023-09-11T17:44:12.613Z,27.83
2023-09-11T17:46:39.280Z,27.87
2023-09-11T17:49:05.890Z,27.82
2023-09-11T17:51:32.418Z,27.75
2023-09-11T17:53:58.919Z,27.76
2023-09-11T17:56:25.426Z,27.74
2023-09-11T17:58:53.130Z,27.73
2023-09-11T18:01:19.762Z,27.69
2023-09-11T18:03:47.249Z,27.59
2023-09-11T18:06:13.979Z,27.54
2023-09-11T18:08:40.837Z,27.51
2023-09-11T18:11:07.535Z,27.48
2023-09-11T18:13:34.015Z,27.44
2023-09-11T18:16:01.243Z,27.44
2023-09-11T18:18:27.831Z,27.42
2023-09-11T18:20:54.538Z,27.38
2023-09-11T18:23:21.101Z,27.36
2023-09-11T18:25:48.639Z,27.35
2023-09-11T18:28:15.244Z,27.31
2023-09-11T18:30:42.811Z,27.30
2023-09-11T18:33:09.525Z,27.26
2023-09-11T18:35:36.057Z,27.23
2023-09-11T18:38:03.099Z,27.15
2023-09-11T18:40:30.867Z,27.13
2023-09-11T18:42:58.052Z,27.12
2023-09-11T18:45:24.885Z,27.11
2023-09-11T18:47:54.184Z,27.02
2023-09-11T18:50:20.667Z,27.09
2023-09-11T18:52:47.271Z,27.05
2023-09-11T18:55:13.786Z,27.02
2023-09-11T18:57:40.304Z,27.00
2023-09-11T19:00:07.325Z,26.96
2023-09-11T19:02:34.140Z,26.95
2023-09-11T19:05:00.728Z,26.92
2023-09-11T19:07:27.320Z,26.89
2023-09-11T19:09:54.073Z,26.86
2023-09-11T19:12:20.579Z,26.78
2023-09-11T19:14:47.308Z,26.73
2023-09-11T19:17:15.716Z,26.70
2023-09-11T19:19:42.268Z,26.66
2023-09-11T19:22:10.574Z,26.58
2023-09-11T19:24:37.177Z,26.55
2023-09-11T19:27:03.921Z,26.52
2023-09-11T19:29:30.445Z,26.44
2023-09-11T19:31:57.263Z,26.40
2023-09-11T19:34:24.089Z,26.37
2023-09-11T19:36:50.636Z,26.25
2023-09-11T19:39:18.825Z,26.20
2023-09-11T19:41:45.394Z,26.17
2023-09-11T19:44:13.572Z,26.14
2023-09-11T19:46:40.962Z,26.14
2023-09-11T19:49:07.619Z,26.09
2023-09-11T19:51:34.582Z,26.06
2023-09-11T19:54:01.106Z,26.04
2023-09-11T19:56:27.676Z,26.04
2023-09-11T19:59:06.330Z,26.06
2023-09-11T20:01:34.616Z,26.05
2023-09-11T20:04:02.908Z,26.02
2023-09-11T20:06:29.557Z,25.98
2023-09-11T20:08:56.087Z,25.96
2023-09-11T20:11:23.574Z,25.94
2023-09-11T20:13:50.038Z,25.92
2023-09-11T20:16:16.574Z,25.86
2023-09-11T20:18:43.484Z,25.83
2023-09-11T20:21:10.273Z,25.81
2023-09-11T20:23:36.822Z,25.76
2023-09-11T20:26:03.839Z,25.72
2023-09-11T20:28:30.510Z,25.70
2023-09-11T20:30:57.043Z,25.66
2023-09-11T20:33:23.583Z,25.61
2023-09-11T20:35:53.173Z,25.58
2023-09-11T20:38:22.646Z,25.56
2023-09-11T20:40:52.426Z,25.52
2023-09-11T20:43:18.919Z,25.43
2023-09-11T20:45:45.475Z,25.35
2023-09-11T20:48:12.065Z,25.23
2023-09-11T20:50:38.542Z,25.23
2023-09-11T20:53:05.034Z,25.22
2023-09-11T20:55:31.856Z,25.17
2023-09-11T20:57:58.578Z,25.15
2023-09-11T21:00:25.062Z,25.12
2023-09-11T21:02:51.804Z,25.09
2023-09-11T21:05:18.515Z,25.03
2023-09-11T21:07:45.919Z,25.04
2023-09-11T21:10:14.230Z,25.02
2023-09-11T21:12:54.664Z,25.01
2023-09-11T21:15:22.598Z,24.99
2023-09-11T21:17:50.338Z,24.96
2023-09-11T21:20:17.904Z,24.93
2023-09-11T21:22:44.513Z,24.87
2023-09-11T21:25:12.515Z,24.78
2023-09-11T21:27:45.248Z,24.70
2023-09-11T21:30:12.057Z,24.67
2023-09-11T21:32:38.582Z,24.66
2023-09-11T21:35:08.061Z,24.63
2023-09-11T21:37:34.582Z,24.55
2023-09-11T21:40:01.041Z,24.52
2023-09-11T21:42:27.585Z,24.47
2023-09-11T21:44:54.207Z,24.43
2023-09-11T21:47:20.693Z,24.38
2023-09-11T21:49:47.210Z,24.38
2023-09-11T21:52:13.698Z,24.37
2023-09-11T21:54:40.287Z,24.38
2023-09-11T21:57:07.592Z,24.37
2023-09-11T21:59:35.024Z,24.31
2023-09-11T22:02:01.601Z,24.28
2023-09-11T22:04:28.182Z,24.26
2023-09-11T22:06:54.704Z,24.25
2023-09-11T22:09:21.615Z,24.22
2023-09-11T22:11:48.384Z,24.18
2023-09-11T22:14:16.032Z,24.04
2023-09-11T22:16:43.382Z,24.08
2023-09-11T22:19:10.252Z,24.06
2023-09-11T22:21:36.783Z,24.04
2023-09-11T22:24:04.322Z,24.04
2023-09-11T22:26:30.894Z,24.04
2023-09-11T22:29:00.534Z,24.00
2023-09-11T22:31:27.209Z,23.96
2023-09-11T22:33:53.806Z,23.92
2023-09-11T22:36:20.370Z,23.89
2023-09-11T22:38:46.875Z,23.85
2023-09-11T22:41:16.402Z,23.81
2023-09-11T22:43:43.005Z,23.80
2023-09-11T22:46:09.695Z,23.76
2023-09-11T22:48:36.263Z,23.74
2023-09-11T22:51:04.530Z,23.70
2023-09-11T22:53:31.806Z,23.69
2023-09-11T22:56:01.963Z,23.66
2023-09-11T22:58:28.702Z,23.64
2023-09-11T23:00:55.369Z,23.63
2023-09-11T23:03:42.602Z,23.61
2023-09-11T23:06:10.502Z,23.55
2023-09-11T23:08:37.000Z,23.51
2023-09-11T23:11:03.441Z,23.49
2023-09-11T23:13:29.937Z,23.44
2023-09-11T23:15:58.672Z,23.43
2023-09-11T23:18:25.311Z,23.42
2023-09-11T23:20:51.880Z,23.45
2023-09-11T23:23:18.746Z,23.37
2023-09-11T23:25:48.034Z,23.37
2023-09-11T23:28:16.264Z,23.36
2023-09-11T23:30:44.196Z,23.34
2023-09-11T23:33:11.749Z,23.33
2023-09-11T23:35:39.009Z,23.29
2023-09-11T23:38:06.196Z,23.27
2023-09-11T23:40:32.938Z,23.24
2023-09-11T23:42:59.699Z,23.20
2023-09-11T23:45:26.403Z,23.19
2023-09-11T23:47:52.965Z,23.17
2023-09-11T23:50:19.506Z,23.14
2023-09-11T23:52:46.496Z,23.10
2023-09-11T23:55:12.965Z,23.06
2023-09-11T23:57:39.567Z,23.01
